• Join FlightAware (Why Join?)
  • Login
  • US Flag 
 
07:25AM EST


 

Airport Tracker/Info


-or-


 

Live Flight TrackerFlight Track Log ✈ SWA1834 ✈ 07-Jun-2014 ✈ KPHX - KSMF

Flight Track Log - Related Links

Times and Time Zones

All times are in EDT time to prevent confusion due to time zone crossing. See the SWA1834 flight status page for this flight to view local times or setup timezone preferences in your user account.

Time Position Orientation Groundspeed Altitude Reporting Facility
EDT Latitude Longitude Course Direction KTS MPH feet Rate Location/Type
11:05PM 33.4333 -112.0500 270° West 166 191 2,800  Level Phoenix TRACON
11:06PM 33.4333 -112.1333 270° West 220 253 4,800 2,160 Climbing Phoenix TRACON
11:07PM 33.4806 -112.1969 312° West 279 321 7,700 2,520 Climbing Albuquerque Center
11:08PM 33.5633 -112.1803 10° North 301 346 10,400 1,920 Climbing Albuquerque Center
11:09PM 33.6597 -112.2114 345° North 358 412 11,700 2,160 Climbing Albuquerque Center
11:10PM 33.9950 -112.3207 334° Northwest  Level FlightAware Approximate
11:10PM 33.7644 -112.2456 345° North 382 440 14,800  Level Albuquerque Center
11:11PM 33.8719 -112.2819 344° North 393 452 17,100 2,280 Climbing Albuquerque Center
11:12PM 33.9853 -112.3192 345° North 415 478 19,500 2,400 Climbing Albuquerque Center
11:13PM 34.0939 -112.3747 337° Northwest 421 484 22,100 2,160 Climbing Albuquerque Center
11:14PM 34.1908 -112.4497 327° Northwest 418 481 23,900 1,620 Climbing Albuquerque Center
11:15PM 34.2564 -112.5678 304° West 424 488 25,500 1,560 Climbing Albuquerque Center
11:16PM 34.3211 -112.6872 303° West 423 487 27,100 1,620 Climbing Albuquerque Center
11:17PM 34.3864 -112.8069 303° West 424 488 28,800 2,220 Climbing Albuquerque Center
11:18PM 34.4567 -112.9319 304° West 416 479 31,600 2,160 Climbing Albuquerque Center
11:19PM 34.5150 -113.0425 303° West 396 456 33,200 1,380 Climbing Albuquerque Center
11:20PM 34.5753 -113.1514 304° West 392 451 34,500 1,080 Climbing Albuquerque Center
11:21PM 34.6344 -113.2611 303° West 391 450 35,500 720 Climbing Albuquerque Center
11:22PM 34.6936 -113.3697 304° West 389 448 36,000 240 Climbing Albuquerque Center
11:23PM 34.7528 -113.4814 303° West 389 448 36,000  Level Albuquerque Center
11:24PM 34.8117 -113.5925 303° West 389 448 36,000  Level Albuquerque Center
11:25PM 34.8711 -113.7025 303° West 389 448 36,000  Level Albuquerque Center
11:26PM 34.9308 -113.8117 304° West 389 448 36,000  Level Albuquerque Center
11:27PM 34.9989 -113.9139 309° West 388 447 36,000  Level Albuquerque Center
11:28PM 35.0772 -114.0333 309° West 388 447 36,000  Level Albuquerque Center
11:29PM 35.1475 -114.1339 311° West 388 447 36,000  Level Albuquerque Center
11:30PM 35.2575 -114.2261 326° Northwest 396 456 36,000  Level Los Angeles Center
11:31PM 35.3483 -114.3047 325° Northwest 397 457 36,000  Level Los Angeles Center
11:32PM 35.4389 -114.3825 325° Northwest 397 457 36,000  Level Los Angeles Center
11:33PM 35.5281 -114.4594 325° Northwest 396 456 36,000  Level Los Angeles Center
11:34PM 35.6186 -114.5364 325° Northwest 395 455 36,000  Level Los Angeles Center
11:35PM 35.7072 -114.6161 324° Northwest 392 451 36,000  Level Los Angeles Center
11:36PM 35.7950 -114.6919 325° Northwest 388 447 36,000  Level Los Angeles Center
11:38PM 35.8828 -114.7694 324° Northwest 388 447 36,000  Level Los Angeles Center
11:39PM 35.9825 -114.8683 321° Northwest 385 443 36,000  Level Los Angeles Center
11:40PM 36.0389 -114.9753 303° West 371 427 36,000  Level Los Angeles Center
11:41PM 36.0969 -115.0822 304° West 372 428 36,000  Level Los Angeles Center
11:42PM 36.1553 -115.1889 304° West 373 429 36,000  Level Los Angeles Center
11:43PM 36.2136 -115.2953 304° West 373 429 36,000  Level Los Angeles Center
11:44PM 36.2717 -115.4028 304° West 376 433 36,000  Level Los Angeles Center
11:45PM 36.3256 -115.5094 302° West 374 430 36,000  Level Los Angeles Center
11:46PM 36.3778 -115.6478 295° West 387 445 36,000  Level Los Angeles Center
11:47PM 36.4222 -115.7625 296° West 378 435 36,000  Level Los Angeles Center
11:48PM 36.4706 -115.8850 296° West 376 433 36,000  Level Los Angeles Center
11:49PM 36.5156 -116.0033 295° West 376 433 36,000  Level Los Angeles Center
11:50PM 36.5606 -116.1194 296° West 376 433 36,000  Level Los Angeles Center
11:51PM 36.6056 -116.2361 296° West 376 433 36,000  Level Los Angeles Center
11:52PM 36.6506 -116.3533 296° West 375 432 36,000  Level Los Angeles Center
11:53PM 36.6953 -116.4692 296° West 375 432 36,000  Level Los Angeles Center
11:54PM 36.7514 -116.5786 303° West 376 433 36,000  Level Los Angeles Center
11:55PM 36.8219 -116.6758 312° West 376 433 36,000  Level Los Angeles Center
11:56PM 36.8906 -116.7750 311° West 376 433 36,000  Level Los Angeles Center
11:57PM 36.9589 -116.8750 311° West 376 433 36,000  Level Los Angeles Center
11:58PM 37.0283 -116.9753 311° West 377 434 36,000  Level Los Angeles Center
11:59PM 37.0967 -117.0758 310° West 377 434 36,000  Level Los Angeles Center
12:00AM 37.1669 -117.1750 312° West 377 434 36,000  Level Los Angeles Center
12:01AM 37.2500 -117.2983 310° West 383 441 36,000  Level Los Angeles Center
12:02AM 37.3053 -117.4094 302° West 376 433 36,000  Level Los Angeles Center
12:02AM 37.3275 -117.4558 301° West 378 435 36,000  Level Oakland Center
12:03AM 37.3842 -117.5689 302° West 377 434 36,000  Level Oakland Center
12:05AM 37.4403 -117.6836 302° West 380 437 36,000  Level Oakland Center
12:06AM 37.4964 -117.7986 302° West 382 440 36,000  Level Oakland Center
12:07AM 37.5528 -117.9122 302° West 382 440 36,000  Level Oakland Center
12:08AM 37.6086 -118.0283 301° West 382 440 36,000  Level Oakland Center
12:09AM 37.6650 -118.1414 302° West 382 440 36,000  Level Oakland Center
12:10AM 37.7203 -118.2578 301° West 383 441 36,000  Level Oakland Center
12:11AM 37.7764 -118.3731 302° West 383 441 36,000  Level Oakland Center
12:12AM 37.8319 -118.4900 301° West 384 442 36,000  Level Oakland Center
12:13AM 37.8881 -118.6056 302° West 385 443 36,000  Level Oakland Center
12:14AM 37.9561 -118.7464 302° West 388 447 36,000  Level Oakland Center
12:15AM 38.0114 -118.8636 301° West 387 445 36,000  Level Oakland Center
12:16AM 38.0661 -118.9803 301° West 387 445 36,000  Level Oakland Center
12:17AM 38.1214 -119.0975 301° West 387 445 36,000  Level Oakland Center
12:18AM 38.1717 -119.2056 301° West 386 444 36,000  Level Oakland Center
12:19AM 38.2256 -119.3206 301° West 384 442 36,000 -480 Level Oakland Center
12:20AM 38.2797 -119.4331 302° West 376 433 35,100 -1,380 Descending Oakland Center
12:21AM 38.3353 -119.5533 301° West 369 425 33,300 -1,800 Descending Oakland Center
12:22AM 38.3839 -119.6608 300° West 356 410 31,500 -1,740 Descending Oakland Center
12:23AM 38.4308 -119.7600 301° West 353 406 29,900 -1,680 Descending Oakland Center
12:24AM 38.4792 -119.8725 299° West 341 392 28,100 -1,800 Descending Oakland Center
12:25AM 38.5275 -119.9756 301° West 341 392 26,300 -1,740 Descending Oakland Center
12:26AM 38.5758 -120.0811 300° West 341 392 24,600 -1,680 Descending Oakland Center
12:27AM 38.6228 -120.1831 301° West 340 391 22,900 -1,740 Descending Oakland Center
12:28AM 38.6700 -120.2844 301° West 337 388 21,200 -1,680 Descending Oakland Center
12:29AM 38.7156 -120.3864 300° West 334 384 19,600 -1,740 Descending Oakland Center
12:30AM 38.7619 -120.4861 301° West 331 381 17,700 -1,740 Descending Oakland Center
12:31AM 38.8067 -120.5864 300° West 330 380 16,100 -1,620 Descending Oakland Center
12:32AM 38.8500 -120.6836 300° West 318 366 14,500 -1,680 Descending Oakland Center
12:33AM 38.9014 -120.7981 300° West 315 362 12,700 -1,920 Descending Oakland Center
12:34AM 38.9364 -120.8964 295° West 310 357 10,700 -1,740 Descending Oakland Center
12:35AM 38.9261 -121.0044 263° West 309 356 9,300 -1,380 Descending Oakland Center
12:36AM 38.9158 -121.1103 263° West 302 348 7,900 -1,320 Descending Oakland Center
12:37AM 38.9000 -121.2167 259° West 291 335 6,700 -1,260 Descending Northern Cal TRACON
12:38AM 38.9000 -121.3167 270° West 282 325 5,500 -1,020 Descending Northern Cal TRACON
12:39AM 38.8833 -121.4167 258° West 263 303 4,600 -1,020 Descending Northern Cal TRACON
12:40AM 38.8333 -121.4833 226° Southwest 245 282 3,400 -1,200 Descending Northern Cal TRACON
12:41AM 38.8167 -121.5500 252° West 192 221 2,300 -960 Descending Northern Cal TRACON
12:42AM 38.7833 -121.6000 229° Southwest 180 207 1,500 -840 Descending Northern Cal TRACON
12:43AM 38.7333 -121.6000 180° South 164 189 700 -900 Descending Northern Cal TRACON
12:46AM 38.6954 -121.5908 90° East  Level Estimated